This is the latest recevied weather packets stored in our database for station/object HS3MXC-2. If no packets are shown the sender has not sent any weather packets the latest 10 day(s).
| Time | Temp. | Humidity | Pressure | Rain* | Wind** | Luminosity | Snow |
|---|---|---|---|---|---|---|---|
| 1777976304 | 28.33° C | 59% | 994.5 hPa | - | - | - | - |
| 1777975686 | 28.33° C | 56% | 994.4 hPa | - | - | - | - |
| 1777975379 | 28.33° C | 57% | 994.2 hPa | - | - | - | - |
| 1777975073 | 28.33° C | 56% | 994.2 hPa | - | - | - | - |
| 1777974766 | 28.33° C | 54% | 994.2 hPa | - | - | - | - |
| 1777974459 | 27.78° C | 55% | 994.2 hPa | - | - | - | - |
| 1777974152 | 26.67° C | 56% | 994.1 hPa | - | - | - | - |
| 1777973845 | 24.44° C | 39% | 994 hPa | - | - | - | - |
| 1777973227 | 25° C | 41% | 993.7 hPa | - | - | - | - |
| 1777972917 | 24.44° C | 40% | 994 hPa | - | - | - | - |
| 1777972611 | 25° C | 41% | 994.3 hPa | - | - | - | - |
| 1777972304 | 25° C | 41% | 994.2 hPa | - | - | - | - |
| 1777971689 | 25.56° C | 41% | 994 hPa | - | - | - | - |
| 1777971382 | 25.56° C | 39% | 994.1 hPa | - | - | - | - |
| 1777971075 | 25.56° C | 39% | 994.2 hPa | - | - | - | - |
| 1777970765 | 25.56° C | 38% | 994.2 hPa | - | - | - | - |
| 1777970458 | 25.56° C | 37% | 994 hPa | - | - | - | - |
| 1777970150 | 25.56° C | 37% | 993.7 hPa | - | - | - | - |
| 1777969844 | 25.56° C | 38% | 993.3 hPa | - | - | - | - |
| 1777969536 | 25.56° C | 38% | 993.6 hPa | - | - | - | - |
| 1777968921 | 25.56° C | 37% | 993.8 hPa | - | - | - | - |
| 1777968612 | 25.56° C | 37% | 993.9 hPa | - | - | - | - |
| 1777968303 | 25.56° C | 38% | 993.8 hPa | - | - | - | - |
| 1777967994 | 25.56° C | 38% | 993.8 hPa | - | - | - | - |
| 1777967687 | 25.56° C | 39% | 993.8 hPa | - | - | - | - |
* Rain since midnight (hover to see other rain measurements)
** Current wind speed in m/s (hover to see current wind gust speed)